sensor_id;sensor_type;location;lat;lon;timestamp;P1;durP1;ratioP1;P2;durP2;ratioP2
27438;SDS011;14887;51.252;7.470;2023-01-04T00:00:47;4.10;;;2.40;;
27438;SDS011;14887;51.252;7.470;2023-01-04T00:03:13;9.77;;;2.60;;
27438;SDS011;14887;51.252;7.470;2023-01-04T00:05:38;9.33;;;1.07;;
27438;SDS011;14887;51.252;7.470;2023-01-04T00:08:03;3.10;;;1.50;;
27438;SDS011;14887;51.252;7.470;2023-01-04T00:10:29;4.37;;;2.13;;
27438;SDS011;14887;51.252;7.470;2023-01-04T00:12:54;7.43;;;2.20;;
27438;SDS011;14887;51.252;7.470;2023-01-04T00:15:20;6.77;;;1.97;;
27438;SDS011;14887;51.252;7.470;2023-01-04T00:17:45;1.23;;;1.00;;
27438;SDS011;14887;51.252;7.470;2023-01-04T00:20:11;2.87;;;1.33;;
27438;SDS011;14887;51.252;7.470;2023-01-04T00:22:37;11.53;;;2.10;;
27438;SDS011;14887;51.252;7.470;2023-01-04T00:25:02;3.30;;;1.50;;
27438;SDS011;14887;51.252;7.470;2023-01-04T00:27:28;3.50;;;2.00;;
27438;SDS011;14887;51.252;7.470;2023-01-04T00:29:54;6.87;;;2.07;;
27438;SDS011;14887;51.252;7.470;2023-01-04T00:32:19;11.77;;;2.03;;
27438;SDS011;14887;51.252;7.470;2023-01-04T00:34:45;3.20;;;1.20;;
27438;SDS011;14887;51.252;7.470;2023-01-04T00:37:10;7.70;;;1.53;;
27438;SDS011;14887;51.252;7.470;2023-01-04T00:39:36;6.23;;;1.37;;
27438;SDS011;14887;51.252;7.470;2023-01-04T00:42:01;5.33;;;0.90;;
27438;SDS011;14887;51.252;7.470;2023-01-04T00:44:30;4.80;;;1.40;;
27438;SDS011;14887;51.252;7.470;2023-01-04T00:46:58;3.20;;;1.43;;
27438;SDS011;14887;51.252;7.470;2023-01-04T00:49:24;8.33;;;1.30;;
27438;SDS011;14887;51.252;7.470;2023-01-04T00:51:50;2.20;;;1.40;;
27438;SDS011;14887;51.252;7.470;2023-01-04T00:54:16;3.10;;;1.30;;
27438;SDS011;14887;51.252;7.470;2023-01-04T00:56:42;8.07;;;1.40;;
27438;SDS011;14887;51.252;7.470;2023-01-04T00:59:09;3.30;;;1.20;;
27438;SDS011;14887;51.252;7.470;2023-01-04T01:01:37;3.80;;;1.27;;
27438;SDS011;14887;51.252;7.470;2023-01-04T01:04:03;18.73;;;1.33;;
27438;SDS011;14887;51.252;7.470;2023-01-04T01:06:30;2.40;;;1.27;;
27438;SDS011;14887;51.252;7.470;2023-01-04T01:08:57;12.60;;;1.50;;
27438;SDS011;14887;51.252;7.470;2023-01-04T01:11:23;18.03;;;2.03;;
27438;SDS011;14887;51.252;7.470;2023-01-04T01:13:49;2.97;;;1.10;;
27438;SDS011;14887;51.252;7.470;2023-01-04T01:16:16;2.23;;;1.30;;
27438;SDS011;14887;51.252;7.470;2023-01-04T01:18:44;3.40;;;1.20;;
27438;SDS011;14887;51.252;7.470;2023-01-04T01:21:12;11.73;;;1.53;;
27438;SDS011;14887;51.252;7.470;2023-01-04T01:23:40;8.00;;;1.07;;
27438;SDS011;14887;51.252;7.470;2023-01-04T01:26:08;9.37;;;1.33;;
27438;SDS011;14887;51.252;7.470;2023-01-04T01:28:36;3.80;;;1.50;;
27438;SDS011;14887;51.252;7.470;2023-01-04T01:31:08;11.53;;;1.37;;
27438;SDS011;14887;51.252;7.470;2023-01-04T01:33:42;6.93;;;1.43;;
27438;SDS011;14887;51.252;7.470;2023-01-04T01:36:09;9.03;;;2.33;;
27438;SDS011;14887;51.252;7.470;2023-01-04T01:38:36;4.10;;;1.50;;
27438;SDS011;14887;51.252;7.470;2023-01-04T01:41:02;1.83;;;1.30;;
27438;SDS011;14887;51.252;7.470;2023-01-04T01:46:28;4.60;;;1.13;;
27438;SDS011;14887;51.252;7.470;2023-01-04T01:49:09;2.80;;;1.27;;
27438;SDS011;14887;51.252;7.470;2023-01-04T01:51:40;2.23;;;1.37;;
27438;SDS011;14887;51.252;7.470;2023-01-04T01:54:08;11.13;;;2.27;;
27438;SDS011;14887;51.252;7.470;2023-01-04T01:56:37;5.77;;;1.70;;
27438;SDS011;14887;51.252;7.470;2023-01-04T01:59:07;5.87;;;2.73;;
27438;SDS011;14887;51.252;7.470;2023-01-04T02:01:35;8.50;;;1.37;;
27438;SDS011;14887;51.252;7.470;2023-01-04T02:04:01;10.87;;;1.20;;
27438;SDS011;14887;51.252;7.470;2023-01-04T02:06:30;1.53;;;1.20;;
27438;SDS011;14887;51.252;7.470;2023-01-04T02:09:00;1.23;;;1.10;;
27438;SDS011;14887;51.252;7.470;2023-01-04T02:11:26;5.33;;;1.30;;
27438;SDS011;14887;51.252;7.470;2023-01-04T02:13:52;3.50;;;1.20;;
27438;SDS011;14887;51.252;7.470;2023-01-04T02:22:51;5.73;;;1.50;;
27438;SDS011;14887;51.252;7.470;2023-01-04T02:31:22;3.30;;;2.30;;
27438;SDS011;14887;51.252;7.470;2023-01-04T02:34:18;7.93;;;1.47;;
27438;SDS011;14887;51.252;7.470;2023-01-04T02:36:58;3.83;;;1.97;;
27438;SDS011;14887;51.252;7.470;2023-01-04T02:39:39;5.63;;;2.20;;
27438;SDS011;14887;51.252;7.470;2023-01-04T02:45:10;6.70;;;1.57;;
27438;SDS011;14887;51.252;7.470;2023-01-04T02:47:39;7.67;;;2.60;;
27438;SDS011;14887;51.252;7.470;2023-01-04T02:50:29;9.93;;;2.43;;
27438;SDS011;14887;51.252;7.470;2023-01-04T02:53:19;3.67;;;2.10;;
27438;SDS011;14887;51.252;7.470;2023-01-04T02:56:06;4.23;;;2.00;;
27438;SDS011;14887;51.252;7.470;2023-01-04T03:01:47;3.20;;;2.10;;
27438;SDS011;14887;51.252;7.470;2023-01-04T03:07:47;3.60;;;2.13;;
27438;SDS011;14887;51.252;7.470;2023-01-04T03:10:29;3.73;;;1.97;;
27438;SDS011;14887;51.252;7.470;2023-01-04T03:13:08;9.03;;;2.23;;
27438;SDS011;14887;51.252;7.470;2023-01-04T03:15:39;3.47;;;1.97;;
27438;SDS011;14887;51.252;7.470;2023-01-04T03:18:12;2.10;;;1.90;;
27438;SDS011;14887;51.252;7.470;2023-01-04T03:20:47;4.77;;;2.00;;
27438;SDS011;14887;51.252;7.470;2023-01-04T03:23:17;6.00;;;1.97;;
27438;SDS011;14887;51.252;7.470;2023-01-04T03:28:50;5.23;;;1.60;;
27438;SDS011;14887;51.252;7.470;2023-01-04T03:34:29;2.90;;;2.23;;
27438;SDS011;14887;51.252;7.470;2023-01-04T03:37:17;4.43;;;1.53;;
27438;SDS011;14887;51.252;7.470;2023-01-04T03:39:59;3.53;;;1.77;;
27438;SDS011;14887;51.252;7.470;2023-01-04T03:45:39;3.30;;;1.57;;
27438;SDS011;14887;51.252;7.470;2023-01-04T03:48:44;8.53;;;1.90;;
27438;SDS011;14887;51.252;7.470;2023-01-04T03:51:21;5.60;;;2.17;;
27438;SDS011;14887;51.252;7.470;2023-01-04T03:56:23;2.83;;;1.97;;
27438;SDS011;14887;51.252;7.470;2023-01-04T03:58:52;3.97;;;2.17;;
27438;SDS011;14887;51.252;7.470;2023-01-04T04:01:22;4.83;;;1.30;;
27438;SDS011;14887;51.252;7.470;2023-01-04T04:03:49;2.70;;;1.43;;
27438;SDS011;14887;51.252;7.470;2023-01-04T04:06:33;3.60;;;2.23;;
27438;SDS011;14887;51.252;7.470;2023-01-04T04:09:19;6.00;;;2.20;;
27438;SDS011;14887;51.252;7.470;2023-01-04T04:11:45;7.80;;;2.37;;
27438;SDS011;14887;51.252;7.470;2023-01-04T04:14:10;6.77;;;2.67;;
27438;SDS011;14887;51.252;7.470;2023-01-04T04:16:36;11.93;;;2.30;;
27438;SDS011;14887;51.252;7.470;2023-01-04T04:19:02;3.83;;;1.70;;
27438;SDS011;14887;51.252;7.470;2023-01-04T04:21:27;5.23;;;1.80;;
27438;SDS011;14887;51.252;7.470;2023-01-04T04:23:53;6.60;;;2.60;;
27438;SDS011;14887;51.252;7.470;2023-01-04T04:26:20;12.90;;;2.30;;
27438;SDS011;14887;51.252;7.470;2023-01-04T04:28:45;6.03;;;2.40;;
27438;SDS011;14887;51.252;7.470;2023-01-04T04:31:11;6.47;;;2.50;;
27438;SDS011;14887;51.252;7.470;2023-01-04T04:33:37;2.43;;;2.20;;
27438;SDS011;14887;51.252;7.470;2023-01-04T04:36:03;3.67;;;2.10;;
27438;SDS011;14887;51.252;7.470;2023-01-04T04:38:29;4.03;;;1.87;;
27438;SDS011;14887;51.252;7.470;2023-01-04T04:40:54;4.93;;;2.03;;
27438;SDS011;14887;51.252;7.470;2023-01-04T04:43:39;2.40;;;1.93;;
27438;SDS011;14887;51.252;7.470;2023-01-04T04:46:04;4.20;;;1.40;;
27438;SDS011;14887;51.252;7.470;2023-01-04T04:48:30;4.30;;;1.57;;
27438;SDS011;14887;51.252;7.470;2023-01-04T04:50:55;5.50;;;1.80;;
27438;SDS011;14887;51.252;7.470;2023-01-04T04:53:21;3.07;;;1.87;;
27438;SDS011;14887;51.252;7.470;2023-01-04T04:55:49;3.77;;;1.73;;
27438;SDS011;14887;51.252;7.470;2023-01-04T04:58:15;1.90;;;1.50;;
27438;SDS011;14887;51.252;7.470;2023-01-04T05:00:41;2.20;;;1.77;;
27438;SDS011;14887;51.252;7.470;2023-01-04T05:03:07;4.40;;;1.70;;
27438;SDS011;14887;51.252;7.470;2023-01-04T05:05:32;3.23;;;1.73;;
27438;SDS011;14887;51.252;7.470;2023-01-04T05:07:58;9.30;;;1.80;;
27438;SDS011;14887;51.252;7.470;2023-01-04T05:10:23;4.17;;;2.27;;
27438;SDS011;14887;51.252;7.470;2023-01-04T05:12:49;7.97;;;1.63;;
27438;SDS011;14887;51.252;7.470;2023-01-04T05:15:23;5.03;;;2.30;;
27438;SDS011;14887;51.252;7.470;2023-01-04T05:17:51;8.33;;;1.60;;
27438;SDS011;14887;51.252;7.470;2023-01-04T05:20:16;1.70;;;1.50;;
27438;SDS011;14887;51.252;7.470;2023-01-04T05:22:42;4.90;;;1.60;;
27438;SDS011;14887;51.252;7.470;2023-01-04T05:25:07;2.40;;;1.10;;
27438;SDS011;14887;51.252;7.470;2023-01-04T05:27:34;2.63;;;1.40;;
27438;SDS011;14887;51.252;7.470;2023-01-04T05:30:00;3.90;;;1.27;;
27438;SDS011;14887;51.252;7.470;2023-01-04T05:32:45;1.93;;;1.73;;
27438;SDS011;14887;51.252;7.470;2023-01-04T05:35:10;1.73;;;1.47;;
27438;SDS011;14887;51.252;7.470;2023-01-04T05:37:36;2.77;;;2.50;;
27438;SDS011;14887;51.252;7.470;2023-01-04T05:40:01;2.60;;;1.83;;
27438;SDS011;14887;51.252;7.470;2023-01-04T05:42:27;5.50;;;2.37;;
27438;SDS011;14887;51.252;7.470;2023-01-04T05:44:53;2.07;;;1.77;;
27438;SDS011;14887;51.252;7.470;2023-01-04T05:47:20;3.17;;;2.13;;
27438;SDS011;14887;51.252;7.470;2023-01-04T05:49:46;3.90;;;1.97;;
27438;SDS011;14887;51.252;7.470;2023-01-04T05:52:12;2.20;;;1.83;;
27438;SDS011;14887;51.252;7.470;2023-01-04T05:54:38;2.13;;;1.83;;
27438;SDS011;14887;51.252;7.470;2023-01-04T05:57:04;5.50;;;1.87;;
27438;SDS011;14887;51.252;7.470;2023-01-04T05:59:30;4.27;;;2.13;;
27438;SDS011;14887;51.252;7.470;2023-01-04T06:01:56;4.23;;;2.53;;
27438;SDS011;14887;51.252;7.470;2023-01-04T06:04:22;3.10;;;1.93;;
27438;SDS011;14887;51.252;7.470;2023-01-04T06:06:47;1.90;;;1.70;;
27438;SDS011;14887;51.252;7.470;2023-01-04T06:09:13;5.70;;;1.97;;
27438;SDS011;14887;51.252;7.470;2023-01-04T06:11:38;1.50;;;1.30;;
27438;SDS011;14887;51.252;7.470;2023-01-04T06:14:04;2.07;;;1.27;;
27438;SDS011;14887;51.252;7.470;2023-01-04T06:16:30;2.87;;;1.70;;
27438;SDS011;14887;51.252;7.470;2023-01-04T06:18:55;2.23;;;1.60;;
27438;SDS011;14887;51.252;7.470;2023-01-04T06:21:21;3.33;;;1.93;;
27438;SDS011;14887;51.252;7.470;2023-01-04T06:23:46;2.97;;;1.90;;
27438;SDS011;14887;51.252;7.470;2023-01-04T06:26:12;2.43;;;1.90;;
27438;SDS011;14887;51.252;7.470;2023-01-04T06:28:37;3.37;;;2.13;;
27438;SDS011;14887;51.252;7.470;2023-01-04T06:31:06;1.67;;;1.50;;
27438;SDS011;14887;51.252;7.470;2023-01-04T06:33:33;2.90;;;1.20;;
27438;SDS011;14887;51.252;7.470;2023-01-04T06:35:59;1.47;;;1.30;;
27438;SDS011;14887;51.252;7.470;2023-01-04T06:38:25;1.77;;;1.53;;
27438;SDS011;14887;51.252;7.470;2023-01-04T06:40:50;1.50;;;1.40;;
27438;SDS011;14887;51.252;7.470;2023-01-04T06:43:16;4.10;;;1.40;;
27438;SDS011;14887;51.252;7.470;2023-01-04T06:45:42;5.40;;;1.60;;
27438;SDS011;14887;51.252;7.470;2023-01-04T06:48:07;2.90;;;1.40;;
27438;SDS011;14887;51.252;7.470;2023-01-04T06:50:33;2.03;;;1.73;;
27438;SDS011;14887;51.252;7.470;2023-01-04T06:52:59;1.80;;;1.47;;
27438;SDS011;14887;51.252;7.470;2023-01-04T06:55:25;8.47;;;1.40;;
27438;SDS011;14887;51.252;7.470;2023-01-04T06:57:50;1.20;;;1.10;;
27438;SDS011;14887;51.252;7.470;2023-01-04T07:00:16;1.50;;;1.40;;
27438;SDS011;14887;51.252;7.470;2023-01-04T07:02:42;1.50;;;1.40;;
27438;SDS011;14887;51.252;7.470;2023-01-04T07:05:07;2.00;;;1.20;;
27438;SDS011;14887;51.252;7.470;2023-01-04T07:07:33;1.43;;;1.07;;
27438;SDS011;14887;51.252;7.470;2023-01-04T07:09:59;1.10;;;1.00;;
27438;SDS011;14887;51.252;7.470;2023-01-04T07:12:25;1.67;;;1.20;;
27438;SDS011;14887;51.252;7.470;2023-01-04T07:14:50;2.87;;;1.60;;
27438;SDS011;14887;51.252;7.470;2023-01-04T07:17:16;0.93;;;0.87;;
27438;SDS011;14887;51.252;7.470;2023-01-04T07:19:42;1.47;;;1.30;;
27438;SDS011;14887;51.252;7.470;2023-01-04T07:22:07;2.07;;;1.37;;
27438;SDS011;14887;51.252;7.470;2023-01-04T07:24:33;1.30;;;1.17;;
27438;SDS011;14887;51.252;7.470;2023-01-04T07:26:58;1.23;;;1.03;;
27438;SDS011;14887;51.252;7.470;2023-01-04T07:29:24;1.10;;;0.97;;
27438;SDS011;14887;51.252;7.470;2023-01-04T07:31:51;0.80;;;0.80;;
27438;SDS011;14887;51.252;7.470;2023-01-04T07:34:17;0.93;;;0.87;;
27438;SDS011;14887;51.252;7.470;2023-01-04T07:36:45;2.03;;;1.20;;
27438;SDS011;14887;51.252;7.470;2023-01-04T07:39:11;0.87;;;0.83;;
27438;SDS011;14887;51.252;7.470;2023-01-04T07:41:40;1.20;;;1.10;;
27438;SDS011;14887;51.252;7.470;2023-01-04T07:44:06;3.27;;;1.00;;
27438;SDS011;14887;51.252;7.470;2023-01-04T07:46:32;1.27;;;1.17;;
27438;SDS011;14887;51.252;7.470;2023-01-04T07:48:59;1.87;;;0.93;;
27438;SDS011;14887;51.252;7.470;2023-01-04T07:51:24;1.00;;;0.90;;
27438;SDS011;14887;51.252;7.470;2023-01-04T07:53:50;1.50;;;1.40;;
27438;SDS011;14887;51.252;7.470;2023-01-04T07:56:16;1.33;;;1.23;;
27438;SDS011;14887;51.252;7.470;2023-01-04T07:58:42;2.60;;;1.30;;
27438;SDS011;14887;51.252;7.470;2023-01-04T08:01:08;5.17;;;1.83;;
27438;SDS011;14887;51.252;7.470;2023-01-04T08:03:35;3.57;;;1.33;;
27438;SDS011;14887;51.252;7.470;2023-01-04T08:06:02;1.80;;;1.70;;
27438;SDS011;14887;51.252;7.470;2023-01-04T08:08:29;1.63;;;1.53;;
27438;SDS011;14887;51.252;7.470;2023-01-04T08:10:54;2.93;;;1.43;;
27438;SDS011;14887;51.252;7.470;2023-01-04T08:13:20;1.63;;;1.20;;
27438;SDS011;14887;51.252;7.470;2023-01-04T08:15:51;1.60;;;1.40;;
27438;SDS011;14887;51.252;7.470;2023-01-04T08:18:17;1.40;;;1.23;;
27438;SDS011;14887;51.252;7.470;2023-01-04T08:20:42;2.50;;;1.47;;
27438;SDS011;14887;51.252;7.470;2023-01-04T08:23:08;1.27;;;1.17;;
27438;SDS011;14887;51.252;7.470;2023-01-04T08:25:33;5.17;;;1.73;;
27438;SDS011;14887;51.252;7.470;2023-01-04T08:27:59;1.30;;;1.20;;
27438;SDS011;14887;51.252;7.470;2023-01-04T08:30:24;1.13;;;0.90;;
27438;SDS011;14887;51.252;7.470;2023-01-04T08:32:50;0.97;;;0.90;;
27438;SDS011;14887;51.252;7.470;2023-01-04T08:35:17;2.90;;;1.13;;
27438;SDS011;14887;51.252;7.470;2023-01-04T08:37:44;2.93;;;0.90;;
27438;SDS011;14887;51.252;7.470;2023-01-04T08:40:09;1.10;;;1.10;;
27438;SDS011;14887;51.252;7.470;2023-01-04T08:42:36;1.13;;;0.90;;
27438;SDS011;14887;51.252;7.470;2023-01-04T08:45:02;1.23;;;1.10;;
27438;SDS011;14887;51.252;7.470;2023-01-04T08:47:28;1.77;;;1.30;;
27438;SDS011;14887;51.252;7.470;2023-01-04T08:49:55;1.17;;;1.07;;
27438;SDS011;14887;51.252;7.470;2023-01-04T08:52:21;0.97;;;0.97;;
27438;SDS011;14887;51.252;7.470;2023-01-04T08:54:47;4.00;;;1.37;;
27438;SDS011;14887;51.252;7.470;2023-01-04T08:57:13;2.20;;;1.03;;
27438;SDS011;14887;51.252;7.470;2023-01-04T08:59:39;1.13;;;1.03;;
27438;SDS011;14887;51.252;7.470;2023-01-04T09:02:10;1.20;;;1.13;;
27438;SDS011;14887;51.252;7.470;2023-01-04T09:04:47;2.03;;;1.30;;
27438;SDS011;14887;51.252;7.470;2023-01-04T09:07:13;1.50;;;1.23;;
27438;SDS011;14887;51.252;7.470;2023-01-04T09:09:39;4.40;;;1.10;;
27438;SDS011;14887;51.252;7.470;2023-01-04T09:12:05;1.10;;;1.00;;
27438;SDS011;14887;51.252;7.470;2023-01-04T09:14:30;1.40;;;1.23;;
27438;SDS011;14887;51.252;7.470;2023-01-04T09:16:56;1.23;;;0.90;;
27438;SDS011;14887;51.252;7.470;2023-01-04T09:19:21;1.23;;;0.70;;
27438;SDS011;14887;51.252;7.470;2023-01-04T09:21:47;1.53;;;1.03;;
27438;SDS011;14887;51.252;7.470;2023-01-04T09:24:13;1.30;;;0.80;;
27438;SDS011;14887;51.252;7.470;2023-01-04T09:26:38;0.70;;;0.70;;
27438;SDS011;14887;51.252;7.470;2023-01-04T09:29:04;0.90;;;0.80;;
27438;SDS011;14887;51.252;7.470;2023-01-04T09:31:30;1.20;;;1.10;;
27438;SDS011;14887;51.252;7.470;2023-01-04T09:33:57;0.80;;;0.80;;
27438;SDS011;14887;51.252;7.470;2023-01-04T09:36:23;1.57;;;1.47;;
27438;SDS011;14887;51.252;7.470;2023-01-04T09:38:49;1.60;;;1.50;;
27438;SDS011;14887;51.252;7.470;2023-01-04T09:43:55;1.00;;;1.00;;
27438;SDS011;14887;51.252;7.470;2023-01-04T09:51:52;1.30;;;1.20;;
27438;SDS011;14887;51.252;7.470;2023-01-04T09:54:33;1.40;;;1.30;;
27438;SDS011;14887;51.252;7.470;2023-01-04T09:57:02;1.50;;;1.37;;
27438;SDS011;14887;51.252;7.470;2023-01-04T09:59:30;1.20;;;1.10;;
27438;SDS011;14887;51.252;7.470;2023-01-04T10:01:58;1.10;;;1.00;;
27438;SDS011;14887;51.252;7.470;2023-01-04T10:04:40;1.33;;;1.20;;
27438;SDS011;14887;51.252;7.470;2023-01-04T10:07:32;1.67;;;1.57;;
27438;SDS011;14887;51.252;7.470;2023-01-04T10:09:57;1.40;;;1.30;;
27438;SDS011;14887;51.252;7.470;2023-01-04T10:12:38;1.30;;;1.00;;
27438;SDS011;14887;51.252;7.470;2023-01-04T10:18:18;3.53;;;1.47;;
27438;SDS011;14887;51.252;7.470;2023-01-04T10:26:13;4.00;;;1.10;;
27438;SDS011;14887;51.252;7.470;2023-01-04T10:34:20;1.43;;;0.80;;
27438;SDS011;14887;51.252;7.470;2023-01-04T10:36:50;0.77;;;0.73;;
27438;SDS011;14887;51.252;7.470;2023-01-04T10:39:23;1.67;;;0.63;;
27438;SDS011;14887;51.252;7.470;2023-01-04T10:41:55;2.87;;;0.73;;
27438;SDS011;14887;51.252;7.470;2023-01-04T10:49:45;2.20;;;0.80;;
27438;SDS011;14887;51.252;7.470;2023-01-04T10:52:40;0.80;;;0.70;;
27438;SDS011;14887;51.252;7.470;2023-01-04T10:55:21;0.90;;;0.80;;
27438;SDS011;14887;51.252;7.470;2023-01-04T10:57:55;0.70;;;0.70;;
27438;SDS011;14887;51.252;7.470;2023-01-04T11:00:34;1.53;;;0.60;;
27438;SDS011;14887;51.252;7.470;2023-01-04T11:03:46;0.80;;;0.70;;
27438;SDS011;14887;51.252;7.470;2023-01-04T11:05:59;0.73;;;0.73;;
27438;SDS011;14887;51.252;7.470;2023-01-04T11:09:05;2.50;;;1.20;;
27438;SDS011;14887;51.252;7.470;2023-01-04T11:11:45;0.80;;;0.70;;
27438;SDS011;14887;51.252;7.470;2023-01-04T11:14:11;0.93;;;0.60;;
27438;SDS011;14887;51.252;7.470;2023-01-04T11:16:38;0.73;;;0.73;;
27438;SDS011;14887;51.252;7.470;2023-01-04T11:19:07;0.80;;;0.70;;
27438;SDS011;14887;51.252;7.470;2023-01-04T11:24:30;1.67;;;0.70;;
27438;SDS011;14887;51.252;7.470;2023-01-04T11:26:57;0.70;;;0.70;;
27438;SDS011;14887;51.252;7.470;2023-01-04T11:29:43;0.70;;;0.70;;
27438;SDS011;14887;51.252;7.470;2023-01-04T11:34:59;2.80;;;1.23;;
27438;SDS011;14887;51.252;7.470;2023-01-04T11:37:32;1.43;;;1.33;;
27438;SDS011;14887;51.252;7.470;2023-01-04T11:40:17;2.80;;;0.90;;
27438;SDS011;14887;51.252;7.470;2023-01-04T11:42:49;1.43;;;1.33;;
27438;SDS011;14887;51.252;7.470;2023-01-04T11:47:49;1.57;;;1.00;;
27438;SDS011;14887;51.252;7.470;2023-01-04T11:50:32;1.53;;;1.33;;
27438;SDS011;14887;51.252;7.470;2023-01-04T11:55:49;3.83;;;1.53;;
27438;SDS011;14887;51.252;7.470;2023-01-04T11:58:15;4.33;;;2.37;;
27438;SDS011;14887;51.252;7.470;2023-01-04T12:00:49;1.20;;;1.10;;
27438;SDS011;14887;51.252;7.470;2023-01-04T12:03:23;1.27;;;1.17;;
27438;SDS011;14887;51.252;7.470;2023-01-04T12:05:51;1.27;;;1.17;;
27438;SDS011;14887;51.252;7.470;2023-01-04T12:08:27;1.17;;;1.07;;
27438;SDS011;14887;51.252;7.470;2023-01-04T12:10:58;1.10;;;1.00;;
27438;SDS011;14887;51.252;7.470;2023-01-04T12:13:25;1.23;;;1.13;;
27438;SDS011;14887;51.252;7.470;2023-01-04T12:18:35;1.67;;;1.57;;
27438;SDS011;14887;51.252;7.470;2023-01-04T12:21:03;1.80;;;1.53;;
27438;SDS011;14887;51.252;7.470;2023-01-04T12:23:29;1.40;;;1.30;;
27438;SDS011;14887;51.252;7.470;2023-01-04T12:25:56;9.60;;;2.07;;
27438;SDS011;14887;51.252;7.470;2023-01-04T12:28:29;1.90;;;1.57;;
27438;SDS011;14887;51.252;7.470;2023-01-04T12:33:43;1.53;;;1.43;;
27438;SDS011;14887;51.252;7.470;2023-01-04T12:50:13;1.50;;;1.37;;
27438;SDS011;14887;51.252;7.470;2023-01-04T12:52:41;3.37;;;1.40;;
27438;SDS011;14887;51.252;7.470;2023-01-04T12:57:43;1.53;;;1.30;;
27438;SDS011;14887;51.252;7.470;2023-01-04T13:00:09;4.27;;;1.00;;
27438;SDS011;14887;51.252;7.470;2023-01-04T13:02:37;1.20;;;1.10;;
27438;SDS011;14887;51.252;7.470;2023-01-04T13:10:18;1.70;;;1.20;;
27438;SDS011;14887;51.252;7.470;2023-01-04T13:12:52;1.20;;;0.87;;
27438;SDS011;14887;51.252;7.470;2023-01-04T13:15:23;1.20;;;1.10;;
27438;SDS011;14887;51.252;7.470;2023-01-04T13:18:03;0.70;;;0.70;;
27438;SDS011;14887;51.252;7.470;2023-01-04T13:20:47;1.40;;;1.30;;
27438;SDS011;14887;51.252;7.470;2023-01-04T13:23:13;1.03;;;0.93;;
27438;SDS011;14887;51.252;7.470;2023-01-04T13:25:39;0.87;;;0.83;;
27438;SDS011;14887;51.252;7.470;2023-01-04T13:28:05;1.20;;;1.10;;
27438;SDS011;14887;51.252;7.470;2023-01-04T13:30:34;1.50;;;1.40;;
27438;SDS011;14887;51.252;7.470;2023-01-04T13:33:13;1.03;;;0.93;;
27438;SDS011;14887;51.252;7.470;2023-01-04T13:35:56;1.73;;;1.17;;
27438;SDS011;14887;51.252;7.470;2023-01-04T13:38:25;1.30;;;1.20;;
27438;SDS011;14887;51.252;7.470;2023-01-04T13:40:51;1.33;;;1.17;;
27438;SDS011;14887;51.252;7.470;2023-01-04T13:43:20;4.50;;;1.10;;
27438;SDS011;14887;51.252;7.470;2023-01-04T13:46:00;1.10;;;1.00;;
27438;SDS011;14887;51.252;7.470;2023-01-04T13:48:49;1.03;;;0.80;;
27438;SDS011;14887;51.252;7.470;2023-01-04T13:51:21;1.00;;;0.90;;
27438;SDS011;14887;51.252;7.470;2023-01-04T13:53:55;1.63;;;0.90;;
27438;SDS011;14887;51.252;7.470;2023-01-04T13:56:23;1.33;;;1.17;;
27438;SDS011;14887;51.252;7.470;2023-01-04T13:58:51;6.97;;;1.40;;
27438;SDS011;14887;51.252;7.470;2023-01-04T14:06:19;1.70;;;1.17;;
27438;SDS011;14887;51.252;7.470;2023-01-04T14:20:01;8.73;;;1.60;;
27438;SDS011;14887;51.252;7.470;2023-01-04T14:27:53;3.93;;;0.90;;
27438;SDS011;14887;51.252;7.470;2023-01-04T14:30:41;1.20;;;1.10;;
27438;SDS011;14887;51.252;7.470;2023-01-04T14:33:14;1.70;;;1.40;;
27438;SDS011;14887;51.252;7.470;2023-01-04T14:35:42;1.30;;;1.13;;
27438;SDS011;14887;51.252;7.470;2023-01-04T14:38:15;1.20;;;1.03;;
27438;SDS011;14887;51.252;7.470;2023-01-04T14:40:43;2.00;;;1.60;;
27438;SDS011;14887;51.252;7.470;2023-01-04T14:45:57;1.10;;;1.00;;
27438;SDS011;14887;51.252;7.470;2023-01-04T14:48:22;3.73;;;1.80;;
27438;SDS011;14887;51.252;7.470;2023-01-04T14:50:47;1.40;;;1.30;;
27438;SDS011;14887;51.252;7.470;2023-01-04T14:53:14;1.97;;;1.27;;
27438;SDS011;14887;51.252;7.470;2023-01-04T14:55:40;2.33;;;1.40;;
27438;SDS011;14887;51.252;7.470;2023-01-04T14:58:05;0.80;;;0.80;;
27438;SDS011;14887;51.252;7.470;2023-01-04T15:00:31;1.87;;;1.40;;
27438;SDS011;14887;51.252;7.470;2023-01-04T15:02:56;1.80;;;1.50;;
27438;SDS011;14887;51.252;7.470;2023-01-04T15:05:22;0.97;;;0.97;;
27438;SDS011;14887;51.252;7.470;2023-01-04T15:07:47;2.10;;;1.30;;
27438;SDS011;14887;51.252;7.470;2023-01-04T15:10:23;1.43;;;1.33;;
27438;SDS011;14887;51.252;7.470;2023-01-04T15:12:50;2.17;;;1.70;;
27438;SDS011;14887;51.252;7.470;2023-01-04T15:15:16;2.30;;;1.90;;
27438;SDS011;14887;51.252;7.470;2023-01-04T15:17:42;1.10;;;1.00;;
27438;SDS011;14887;51.252;7.470;2023-01-04T15:20:08;2.97;;;1.20;;
27438;SDS011;14887;51.252;7.470;2023-01-04T15:22:34;9.67;;;1.50;;
27438;SDS011;14887;51.252;7.470;2023-01-04T15:24:59;1.90;;;1.30;;
27438;SDS011;14887;51.252;7.470;2023-01-04T15:27:25;1.27;;;1.00;;
27438;SDS011;14887;51.252;7.470;2023-01-04T15:29:50;1.70;;;1.47;;
27438;SDS011;14887;51.252;7.470;2023-01-04T15:32:16;2.20;;;1.30;;
27438;SDS011;14887;51.252;7.470;2023-01-04T15:34:41;1.20;;;1.10;;
27438;SDS011;14887;51.252;7.470;2023-01-04T15:37:07;2.00;;;1.60;;
27438;SDS011;14887;51.252;7.470;2023-01-04T15:39:32;1.30;;;1.20;;
27438;SDS011;14887;51.252;7.470;2023-01-04T15:41:58;4.50;;;2.10;;
27438;SDS011;14887;51.252;7.470;2023-01-04T15:44:42;3.20;;;1.47;;
27438;SDS011;14887;51.252;7.470;2023-01-04T15:47:08;1.90;;;1.73;;
27438;SDS011;14887;51.252;7.470;2023-01-04T15:49:34;4.47;;;1.70;;
27438;SDS011;14887;51.252;7.470;2023-01-04T15:52:00;6.10;;;1.90;;
27438;SDS011;14887;51.252;7.470;2023-01-04T15:54:26;5.57;;;2.47;;
27438;SDS011;14887;51.252;7.470;2023-01-04T15:56:52;2.67;;;1.97;;
27438;SDS011;14887;51.252;7.470;2023-01-04T15:59:18;5.60;;;1.93;;
27438;SDS011;14887;51.252;7.470;2023-01-04T16:01:44;2.30;;;1.90;;
27438;SDS011;14887;51.252;7.470;2023-01-04T16:04:10;4.33;;;1.90;;
27438;SDS011;14887;51.252;7.470;2023-01-04T16:06:36;4.43;;;1.50;;
27438;SDS011;14887;51.252;7.470;2023-01-04T16:09:02;8.83;;;1.80;;
27438;SDS011;14887;51.252;7.470;2023-01-04T16:11:28;1.93;;;1.40;;
27438;SDS011;14887;51.252;7.470;2023-01-04T16:13:54;1.83;;;1.73;;
27438;SDS011;14887;51.252;7.470;2023-01-04T16:16:20;5.67;;;1.53;;
27438;SDS011;14887;51.252;7.470;2023-01-04T16:18:48;11.47;;;1.60;;
27438;SDS011;14887;51.252;7.470;2023-01-04T16:21:15;8.63;;;2.03;;
27438;SDS011;14887;51.252;7.470;2023-01-04T16:23:48;2.60;;;1.40;;
27438;SDS011;14887;51.252;7.470;2023-01-04T16:26:17;2.83;;;2.00;;
27438;SDS011;14887;51.252;7.470;2023-01-04T16:28:47;10.33;;;2.13;;
27438;SDS011;14887;51.252;7.470;2023-01-04T16:31:14;3.03;;;1.77;;
27438;SDS011;14887;51.252;7.470;2023-01-04T16:33:40;3.53;;;1.57;;
27438;SDS011;14887;51.252;7.470;2023-01-04T16:36:07;4.13;;;1.50;;
27438;SDS011;14887;51.252;7.470;2023-01-04T16:38:35;13.93;;;2.23;;
27438;SDS011;14887;51.252;7.470;2023-01-04T16:41:01;2.90;;;2.00;;
27438;SDS011;14887;51.252;7.470;2023-01-04T16:43:28;15.80;;;3.00;;
27438;SDS011;14887;51.252;7.470;2023-01-04T16:48:55;4.23;;;2.27;;
27438;SDS011;14887;51.252;7.470;2023-01-04T16:51:22;4.50;;;2.60;;
27438;SDS011;14887;51.252;7.470;2023-01-04T16:53:49;2.73;;;1.63;;
27438;SDS011;14887;51.252;7.470;2023-01-04T16:56:15;1.47;;;1.10;;
27438;SDS011;14887;51.252;7.470;2023-01-04T16:58:42;4.87;;;2.30;;
27438;SDS011;14887;51.252;7.470;2023-01-04T17:01:10;2.27;;;1.50;;
27438;SDS011;14887;51.252;7.470;2023-01-04T17:03:38;2.90;;;1.87;;
27438;SDS011;14887;51.252;7.470;2023-01-04T17:06:08;2.40;;;2.20;;
27438;SDS011;14887;51.252;7.470;2023-01-04T17:08:39;4.27;;;3.30;;